Time;durP1;ratioP1;P1;durP2;ratioP2;P2;SDS_P1;SDS_P2;PMS_P1;PMS_P2;Temp;Humidity;BMP_temperature;BMP_pressure;BME280_temperature;BME280_humidity;BME280_pressure;Samples;Min_cycle;Max_cycle;Signal;HPM_P1;HPM_P2
2020/12/10 00:01:49;;;;;;;13.32;5.50;;;179.70;1920.00;;;;;;5056195;28;20025;-73
2020/12/10 00:04:15;;;;;;;15.27;6.32;;;179.70;1920.00;;;;;;5055966;28;20029;-72
2020/12/10 00:06:41;;;;;;;12.25;4.50;;;179.70;1920.00;;;;;;5056031;28;20448;-73
2020/12/10 00:09:07;;;;;;;10.93;4.50;;;179.60;1920.00;;;;;;5055714;28;20120;-72
2020/12/10 00:11:36;;;;;;;12.73;4.40;;;179.70;1920.00;;;;;;5054353;28;20063;-72
2020/12/10 00:14:04;;;;;;;8.90;3.92;;;179.60;1920.00;;;;;;5055975;28;20048;-72
2020/12/10 00:16:30;;;;;;;4.18;2.80;;;179.60;1920.00;;;;;;5055720;28;20031;-70
2020/12/10 00:18:56;;;;;;;5.18;2.50;;;179.60;1920.00;;;;;;5055929;28;20021;-70
2020/12/10 00:21:22;;;;;;;4.47;2.40;;;179.60;1920.00;;;;;;5054906;28;20497;-70
2020/12/10 00:23:49;;;;;;;2.60;2.20;;;179.60;1920.00;;;;;;5055827;28;20028;-70
2020/12/10 00:26:16;;;;;;;3.33;2.20;;;179.70;1920.00;;;;;;5055467;28;20471;-70
2020/12/10 00:28:42;;;;;;;4.15;2.72;;;179.60;1920.00;;;;;;5055963;28;20029;-70
2020/12/10 00:31:08;;;;;;;4.57;2.72;;;179.60;1920.00;;;;;;5055608;28;20040;-70
2020/12/10 00:33:34;;;;;;;3.67;2.58;;;179.70;1894.40;;;;;;5055452;28;20513;-71
2020/12/10 00:35:59;;;;;;;4.53;2.70;;;179.70;1920.00;;;;;;5055455;28;20029;-71
2020/12/10 00:38:27;;;;;;;5.28;2.83;;;179.60;1920.00;;;;;;5055345;28;20025;-69
2020/12/10 00:40:53;;;;;;;7.28;3.20;;;179.70;1920.00;;;;;;5054931;28;20025;-72
2020/12/10 00:43:19;;;;;;;5.43;3.20;;;179.70;1920.00;;;;;;5055366;28;20036;-72
2020/12/10 00:45:46;;;;;;;4.47;2.88;;;179.70;1894.40;;;;;;5055412;28;20021;-70
2020/12/10 00:48:12;;;;;;;3.72;2.50;;;179.70;1894.40;;;;;;5055203;28;20120;-69
2020/12/10 00:50:38;;;;;;;3.35;2.63;;;179.70;1894.40;;;;;;5034338;28;20112;-70
2020/12/10 00:53:03;;;;;;;3.28;2.58;;;179.70;1894.40;;;;;;5035371;28;20040;-70
2020/12/10 00:55:29;;;;;;;2.75;2.33;;;179.70;1894.40;;;;;;5034848;28;20022;-70
2020/12/10 00:57:55;;;;;;;3.47;2.67;;;179.70;1894.40;;;;;;5035138;28;20025;-70
2020/12/10 01:00:20;;;;;;;2.88;2.20;;;179.60;1894.40;;;;;;5034956;28;20171;-70
2020/12/10 01:02:46;;;;;;;5.40;2.60;;;179.60;1894.40;;;;;;5035166;28;20030;-70
2020/12/10 01:05:12;;;;;;;3.42;2.70;;;179.70;1894.40;;;;;;5034710;28;20084;-70
2020/12/10 01:07:37;;;;;;;3.53;2.83;;;179.60;1894.40;;;;;;5035189;28;20025;-71
2020/12/10 01:10:05;;;;;;;2.95;2.15;;;179.70;1894.40;;;;;;5034659;28;20065;-71
2020/12/10 01:12:31;;;;;;;4.25;3.00;;;179.60;1894.40;;;;;;5034743;28;20483;-70
2020/12/10 01:14:56;;;;;;;3.80;2.80;;;179.70;1868.80;;;;;;5034845;28;20027;-70
2020/12/10 01:17:22;;;;;;;5.13;3.13;;;179.60;1868.80;;;;;;5034710;28;20037;-70
2020/12/10 01:19:48;;;;;;;5.90;3.75;;;179.60;1894.40;;;;;;5034386;28;20028;-70
2020/12/10 01:22:13;;;;;;;4.88;3.40;;;179.60;1894.40;;;;;;5034140;28;20021;-71
2020/12/10 01:24:50;;;;;;;4.43;3.40;;;179.60;1894.40;;;;;;5033349;28;20501;-70
2020/12/10 01:27:21;;;;;;;5.43;3.63;;;179.60;1894.40;;;;;;5034292;28;20141;-70
2020/12/10 01:29:46;;;;;;;5.45;4.03;;;179.60;1894.40;;;;;;5034451;28;20032;-70
2020/12/10 01:32:12;;;;;;;5.35;3.80;;;179.70;1868.80;;;;;;5033471;28;20042;-70
2020/12/10 01:34:37;;;;;;;5.53;4.00;;;179.70;1868.80;;;;;;5034636;28;20021;-71
2020/12/10 01:37:03;;;;;;;7.20;4.63;;;179.70;1894.40;;;;;;5034176;28;20116;-70
2020/12/10 01:39:29;;;;;;;5.82;4.28;;;179.70;1868.80;;;;;;5034150;28;20026;-71
2020/12/10 01:41:55;;;;;;;7.75;4.40;;;179.70;1868.80;;;;;;5034346;28;20022;-71
2020/12/10 01:44:20;;;;;;;9.18;4.25;;;179.60;1868.80;;;;;;5034399;28;20032;-70
2020/12/10 01:46:46;;;;;;;5.35;3.70;;;179.70;1868.80;;;;;;5034389;28;20517;-70
2020/12/10 01:49:12;;;;;;;5.68;4.05;;;179.70;1894.40;;;;;;5033200;28;20475;-70
2020/12/10 01:51:38;;;;;;;6.80;4.40;;;179.70;1868.80;;;;;;5033065;28;20041;-70
2020/12/10 01:54:05;;;;;;;7.45;4.85;;;179.70;1868.80;;;;;;5034364;28;20033;-70
2020/12/10 01:56:31;;;;;;;8.95;5.25;;;179.70;1868.80;;;;;;5033990;28;20083;-70
2020/12/10 01:59:00;;;;;;;9.18;4.97;;;179.70;1868.80;;;;;;5034251;28;20029;-69
2020/12/10 02:01:28;;;;;;;8.18;4.75;;;179.70;1894.40;;;;;;5033730;28;20064;-69
2020/12/10 02:03:54;;;;;;;8.93;4.82;;;179.70;1894.40;;;;;;5033900;28;20033;-70
2020/12/10 02:06:20;;;;;;;9.63;4.60;;;179.60;1894.40;;;;;;5034048;28;20033;-70
2020/12/10 02:08:46;;;;;;;7.35;4.70;;;179.70;1894.40;;;;;;5033598;28;20021;-70
2020/12/10 02:11:12;;;;;;;7.38;4.35;;;179.60;1894.40;;;;;;5033548;28;20053;-70
2020/12/10 02:13:39;;;;;;;6.55;4.20;;;179.60;1894.40;;;;;;5033834;28;20395;-70
2020/12/10 02:16:05;;;;;;;7.13;4.63;;;179.60;1894.40;;;;;;5032482;28;20159;-70
2020/12/10 02:18:31;;;;;;;5.72;4.25;;;179.60;1894.40;;;;;;5033528;28;20033;-70
2020/12/10 02:20:57;;;;;;;5.95;3.90;;;179.60;1894.40;;;;;;5033918;28;20029;-70
2020/12/10 02:23:22;;;;;;;7.35;4.32;;;179.70;1894.40;;;;;;5033304;28;20026;-70
2020/12/10 02:25:48;;;;;;;6.30;4.63;;;179.70;1894.40;;;;;;5033711;28;20022;-70
2020/12/10 02:28:16;;;;;;;6.20;4.38;;;179.70;1894.40;;;;;;5033498;28;20025;-70
2020/12/10 02:30:44;;;;;;;7.05;4.53;;;179.70;1894.40;;;;;;5033543;28;20518;-70
2020/12/10 02:33:11;;;;;;;5.95;4.15;;;179.70;1894.40;;;;;;5033736;28;20379;-70
2020/12/10 02:35:38;;;;;;;6.47;4.60;;;179.70;1894.40;;;;;;5032332;28;20113;-70
2020/12/10 02:38:06;;;;;;;6.70;4.50;;;179.70;1894.40;;;;;;5033561;28;20033;-70
2020/12/10 02:40:38;;;;;;;8.02;4.70;;;179.70;1894.40;;;;;;5033687;28;20037;-70
2020/12/10 02:43:04;;;;;;;8.73;5.18;;;179.70;1894.40;;;;;;5034137;28;20041;-70
2020/12/10 02:45:30;;;;;;;7.07;4.82;;;179.70;1894.40;;;;;;5037557;28;20028;-70
2020/12/10 02:47:56;;;;;;;6.93;4.82;;;179.70;1894.40;;;;;;5037835;28;20029;-70
2020/12/10 02:50:22;;;;;;;7.75;5.10;;;179.70;1894.40;;;;;;5037413;28;20411;-69
2020/12/10 02:52:48;;;;;;;7.05;4.65;;;179.70;1894.40;;;;;;5037200;28;20038;-69
2020/12/10 02:55:14;;;;;;;7.55;5.40;;;179.70;1894.40;;;;;;5036358;28;20357;-69
2020/12/10 02:57:40;;;;;;;8.23;5.22;;;179.70;1894.40;;;;;;5037385;28;20033;-69
2020/12/10 03:00:07;;;;;;;9.90;6.10;;;179.70;1920.00;;;;;;5037509;28;20375;-69
2020/12/10 03:02:33;;;;;;;17.45;9.07;;;179.60;1894.40;;;;;;5037029;28;20171;-69
2020/12/10 03:04:59;;;;;;;27.58;13.50;;;179.70;1920.00;;;;;;5036872;28;20522;-69
2020/12/10 03:07:25;;;;;;;24.42;12.15;;;179.70;1920.00;;;;;;5036818;28;20029;-69
2020/12/10 03:09:50;;;;;;;19.38;10.43;;;179.70;1894.40;;;;;;5036980;28;20188;-69
2020/12/10 03:12:16;;;;;;;13.35;8.30;;;179.80;1894.40;;;;;;5036760;28;20507;-69
2020/12/10 03:14:42;;;;;;;12.75;7.80;;;179.70;1894.40;;;;;;5037196;28;20036;-69
2020/12/10 03:17:08;;;;;;;10.77;7.10;;;179.80;1894.40;;;;;;5036922;28;20029;-69
2020/12/10 03:19:33;;;;;;;11.82;7.13;;;179.80;1894.40;;;;;;5035792;28;20143;-69
2020/12/10 03:21:59;;;;;;;10.25;6.78;;;179.70;1894.40;;;;;;5037069;28;20383;-69
2020/12/10 03:24:25;;;;;;;8.73;6.22;;;179.80;1894.40;;;;;;5037009;28;20026;-69
2020/12/10 03:26:51;;;;;;;9.07;5.97;;;179.80;1894.40;;;;;;5036531;28;20448;-69
2020/12/10 03:29:16;;;;;;;11.32;6.93;;;179.80;1920.00;;;;;;5036566;28;20037;-70
2020/12/10 03:31:42;;;;;;;9.75;7.40;;;179.80;1894.40;;;;;;5017007;28;20395;-70
2020/12/10 03:34:08;;;;;;;17.98;8.48;;;179.90;1894.40;;;;;;5043748;28;20540;-70
2020/12/10 03:36:54;;;;;;;11.82;8.18;;;179.90;1894.40;;;;;;5056723;28;20025;-69
2020/12/10 03:39:22;;;;;;;10.63;7.82;;;179.90;1894.40;;;;;;5056508;28;20032;-70
2020/12/10 03:41:49;;;;;;;12.63;8.23;;;179.90;1894.40;;;;;;5054816;28;20108;-69
2020/12/10 03:44:15;;;;;;;12.05;8.25;;;179.90;1920.00;;;;;;5055802;28;20029;-69
2020/12/10 03:46:41;;;;;;;14.02;8.35;;;180.00;1920.00;;;;;;5036807;28;20022;-70
2020/12/10 03:49:07;;;;;;;15.45;8.95;;;180.00;1894.40;;;;;;5036466;28;20096;-69
2020/12/10 03:51:34;;;;;;;15.27;8.95;;;180.00;1894.40;;;;;;5034914;28;20029;-70
2020/12/10 03:54:00;;;;;;;13.60;9.00;;;180.00;1894.40;;;;;;5036121;28;20055;-70
2020/12/10 03:56:25;;;;;;;15.75;9.60;;;180.00;1894.40;;;;;;5033960;28;20124;-69
2020/12/10 03:58:51;;;;;;;13.75;9.55;;;180.10;1894.40;;;;;;5036469;28;20383;-70
2020/12/10 04:01:17;;;;;;;15.75;9.57;;;180.10;1894.40;;;;;;5036368;28;20131;-70
2020/12/10 04:03:43;;;;;;;15.85;9.73;;;180.10;1894.40;;;;;;5035747;28;20654;-70
2020/12/10 04:06:09;;;;;;;16.60;9.60;;;180.00;1894.40;;;;;;5036283;28;20048;-70
2020/12/10 04:08:35;;;;;;;13.35;8.75;;;180.10;1894.40;;;;;;5036057;28;20025;-70
2020/12/10 04:11:01;;;;;;;19.70;8.95;;;180.10;1894.40;;;;;;5035598;28;20049;-70
2020/12/10 04:13:26;;;;;;;14.07;9.45;;;180.10;1894.40;;;;;;5036464;28;20048;-70
2020/12/10 04:15:52;;;;;;;16.55;10.27;;;180.10;1894.40;;;;;;5034617;28;20033;-70
2020/12/10 04:18:18;;;;;;;16.73;10.35;;;204.80;1894.40;;;;;;5035966;28;20053;-70
2020/12/10 04:20:44;;;;;;;17.42;11.95;;;204.80;1894.40;;;;;;5035852;28;20498;-70
2020/12/10 04:23:09;;;;;;;17.35;10.77;;;180.10;1894.40;;;;;;5035407;28;20052;-70
2020/12/10 04:25:35;;;;;;;16.67;10.93;;;180.10;1894.40;;;;;;5035756;28;20036;-70
2020/12/10 04:28:01;;;;;;;20.42;11.82;;;204.80;1894.40;;;;;;5034495;28;20033;-69
2020/12/10 04:30:26;;;;;;;19.35;11.30;;;180.10;1894.40;;;;;;5035429;28;20030;-69
2020/12/10 04:32:52;;;;;;;15.57;10.70;;;180.10;1894.40;;;;;;5035635;28;20124;-70
2020/12/10 04:35:18;;;;;;;16.95;12.10;;;180.10;1894.40;;;;;;5035876;28;20045;-70
2020/12/10 04:37:44;;;;;;;16.63;11.00;;;180.10;1894.40;;;;;;5035500;28;20026;-70
2020/12/10 04:40:09;;;;;;;19.35;11.60;;;180.10;1894.40;;;;;;5033798;28;20034;-70
2020/12/10 04:42:37;;;;;;;16.55;11.05;;;180.10;1894.40;;;;;;5035433;28;20017;-71
2020/12/10 04:45:03;;;;;;;17.65;11.27;;;180.10;1894.40;;;;;;5035289;28;20017;-69
2020/12/10 04:47:30;;;;;;;16.38;10.18;;;180.10;1894.40;;;;;;5033997;28;20037;-69
2020/12/10 04:49:59;;;;;;;16.58;10.88;;;204.80;1894.40;;;;;;5035318;28;20032;-69
2020/12/10 04:52:26;;;;;;;22.08;14.90;;;204.80;1894.40;;;;;;5035171;28;20041;-69
2020/12/10 04:54:52;;;;;;;20.08;14.30;;;204.80;1894.40;;;;;;5035301;28;20029;-69
2020/12/10 04:57:20;;;;;;;18.08;12.85;;;180.10;1894.40;;;;;;5035102;28;20048;-69
2020/12/10 04:59:45;;;;;;;25.58;15.30;;;180.10;1894.40;;;;;;5034773;28;20030;-69
2020/12/10 05:02:12;;;;;;;21.05;14.55;;;180.10;1894.40;;;;;;5033773;28;20086;-69
2020/12/10 05:04:38;;;;;;;32.10;17.85;;;180.10;1894.40;;;;;;5035054;28;20026;-69
2020/12/10 05:07:04;;;;;;;35.53;21.15;;;180.10;1894.40;;;;;;5034690;28;20026;-70
2020/12/10 05:09:30;;;;;;;52.10;28.48;;;180.10;1894.40;;;;;;5034631;28;20056;-70
2020/12/10 05:11:56;;;;;;;47.00;31.38;;;180.10;1894.40;;;;;;5034654;28;20033;-70
2020/12/10 05:14:22;;;;;;;36.85;24.13;;;180.10;1894.40;;;;;;5034997;28;20050;-70
2020/12/10 05:17:08;;;;;;;31.35;19.17;;;180.00;1894.40;;;;;;5034771;28;20025;-70
2020/12/10 05:19:33;;;;;;;25.08;14.27;;;180.00;1894.40;;;;;;5033344;28;20032;-70
2020/12/10 05:22:05;;;;;;;22.45;14.65;;;180.00;1894.40;;;;;;5034745;28;20371;-70
2020/12/10 05:24:31;;;;;;;22.13;13.02;;;179.90;1920.00;;;;;;5034799;28;20045;-70
2020/12/10 05:27:22;;;;;;;19.52;13.48;;;179.90;1920.00;;;;;;5034426;28;20022;-70
2020/12/10 05:29:50;;;;;;;16.00;12.27;;;179.90;1894.40;;;;;;5034328;28;20104;-70
2020/12/10 05:32:36;;;;;;;16.17;12.45;;;179.90;1894.40;;;;;;5032913;28;20041;-69
2020/12/10 05:35:14;;;;;;;17.08;12.48;;;179.90;1920.00;;;;;;5034359;28;20037;-69
2020/12/10 05:37:40;;;;;;;33.40;21.92;;;179.90;1920.00;;;;;;5034522;28;20022;-69
2020/12/10 05:40:06;;;;;;;68.43;39.05;;;179.90;1920.00;;;;;;5067128;28;20446;-69
2020/12/10 05:42:51;;;;;;;75.63;39.22;;;179.90;1920.00;;;;;;5034588;28;20390;-70
2020/12/10 05:45:21;;;;;;;67.90;38.58;;;179.80;1920.00;;;;;;5034377;28;20022;-69
2020/12/10 05:47:52;;;;;;;51.03;28.00;;;179.90;1894.40;;;;;;5034275;28;20034;-69
2020/12/10 05:50:26;;;;;;;41.50;23.83;;;179.80;1920.00;;;;;;5034466;28;20025;-69
2020/12/10 05:53:05;;;;;;;55.15;34.47;;;179.80;1920.00;;;;;;5033894;28;20052;-69
2020/12/10 05:55:32;;;;;;;56.00;31.92;;;179.80;1920.00;;;;;;5034138;28;20030;-70
2020/12/10 05:57:59;;;;;;;63.33;43.30;;;179.80;1920.00;;;;;;5032826;28;20026;-69
2020/12/10 06:00:25;;;;;;;60.85;40.28;;;179.80;1920.00;;;;;;5033820;28;20060;-69
2020/12/10 06:02:53;;;;;;;54.47;35.22;;;179.90;1920.00;;;;;;5033879;28;20067;-69
2020/12/10 06:05:19;;;;;;;56.50;34.88;;;179.90;1920.00;;;;;;5034031;28;20564;-69
2020/12/10 06:08:01;;;;;;;75.30;45.42;;;179.90;1920.00;;;;;;5034067;28;20108;-69
2020/12/10 06:10:26;;;;;;;118.32;76.43;;;179.90;1920.00;;;;;;5033563;28;20564;-69
2020/12/10 06:12:52;;;;;;;94.07;61.95;;;179.90;1920.00;;;;;;5039110;28;20132;-70
2020/12/10 06:15:26;;;;;;;85.20;51.00;;;179.90;1920.00;;;;;;5045918;28;20459;-69
2020/12/10 06:18:07;;;;;;;61.17;38.08;;;180.00;1920.00;;;;;;5013684;28;20030;-71
2020/12/10 06:20:37;;;;;;;56.75;37.58;;;180.00;1920.00;;;;;;5014044;28;20105;-70
2020/12/10 06:23:30;;;;;;;57.22;37.03;;;180.00;1920.00;;;;;;5014174;28;20030;-70
2020/12/10 06:25:58;;;;;;;64.53;41.10;;;180.00;1894.40;;;;;;5013789;28;20037;-70
2020/12/10 06:28:25;;;;;;;51.40;32.78;;;180.10;1920.00;;;;;;5049926;28;20021;-69
2020/12/10 06:31:08;;;;;;;80.32;48.05;;;180.00;1920.00;;;;;;5042317;28;20033;-69
2020/12/10 06:33:41;;;;;;;47.03;28.15;;;180.00;1894.40;;;;;;5033850;28;20026;-67
2020/12/10 06:36:26;;;;;;;53.65;24.88;;;204.80;1945.60;;;;;;5041967;28;20012;-69
2020/12/10 06:38:56;;;;;;;82.30;41.85;;;204.90;1971.20;;;;;;5044166;28;20098;-69
2020/12/10 06:41:23;;;;;;;74.63;47.13;;;204.90;1920.00;;;;;;5040030;28;20030;-70
2020/12/10 06:43:49;;;;;;;68.88;45.13;;;204.90;1920.00;;;;;;5053619;28;20029;-70
2020/12/10 06:46:15;;;;;;;66.35;41.97;;;204.90;1920.00;;;;;;5046079;28;20385;-70
2020/12/10 06:48:44;;;;;;;67.78;46.80;;;204.90;1920.00;;;;;;5036171;28;20026;-69
2020/12/10 06:51:13;;;;;;;67.43;43.85;;;204.80;1920.00;;;;;;5040114;28;20375;-69
2020/12/10 06:53:39;;;;;;;54.15;39.97;;;204.80;1920.00;;;;;;5052136;28;20052;-69
2020/12/10 06:56:11;;;;;;;54.58;37.95;;;204.80;1920.00;;;;;;5046940;28;20479;-69
2020/12/10 06:58:38;;;;;;;52.17;36.40;;;204.80;1920.00;;;;;;5033879;28;20022;-69
2020/12/10 07:01:23;;;;;;;75.28;50.50;;;204.80;1920.00;;;;;;5049587;28;20536;-69
2020/12/10 07:03:53;;;;;;;60.50;43.08;;;204.80;1920.00;;;;;;5053217;28;20028;-69
2020/12/10 07:06:20;;;;;;;69.30;44.80;;;204.80;1920.00;;;;;;5053107;28;20045;-69
2020/12/10 07:09:08;;;;;;;69.97;51.40;;;204.80;1920.00;;;;;;5053344;28;20374;-69
2020/12/10 07:11:39;;;;;;;48.40;31.05;;;204.80;1920.00;;;;;;5052717;28;20045;-69
2020/12/10 07:14:30;;;;;;;54.63;36.47;;;204.80;1920.00;;;;;;5013695;28;20026;-69
2020/12/10 07:16:56;;;;;;;40.53;26.27;;;204.80;1920.00;;;;;;5045817;28;20040;-69
2020/12/10 07:19:22;;;;;;;67.60;48.63;;;204.80;1920.00;;;;;;5053075;28;20090;-69
2020/12/10 07:21:48;;;;;;;54.92;36.17;;;180.10;1920.00;;;;;;5036159;28;20092;-68
2020/12/10 07:24:14;;;;;;;56.30;43.05;;;204.80;1920.00;;;;;;5048562;28;20080;-69
2020/12/10 07:26:41;;;;;;;62.80;49.67;;;180.10;1920.00;;;;;;5052793;28;20033;-69
2020/12/10 07:29:07;;;;;;;65.35;46.70;;;204.80;1945.60;;;;;;5052951;28;20045;-69
2020/12/10 07:31:33;;;;;;;135.07;63.65;;;205.00;1920.00;;;;;;5047353;28;20126;-69
2020/12/10 07:33:59;;;;;;;150.35;70.85;;;204.90;1920.00;;;;;;5040959;28;20053;-69
2020/12/10 07:36:27;;;;;;;95.82;50.45;;;204.90;1920.00;;;;;;5047879;28;20029;-69
2020/12/10 07:38:53;;;;;;;68.70;40.97;;;205.00;1920.00;;;;;;5056371;28;20029;-68
2020/12/10 07:41:19;;;;;;;53.88;34.00;;;205.00;1920.00;;;;;;5056783;28;20094;-69
2020/12/10 07:43:49;;;;;;;42.72;26.38;;;205.00;1920.00;;;;;;5038233;28;20467;-69
2020/12/10 07:46:15;;;;;;;34.00;22.52;;;205.00;1920.00;;;;;;5053892;28;20385;-69
2020/12/10 07:48:42;;;;;;;32.35;21.67;;;205.10;1894.40;;;;;;5054800;28;20474;-70
2020/12/10 07:51:08;;;;;;;30.35;21.25;;;205.10;1894.40;;;;;;5044328;28;20519;-69
2020/12/10 07:53:34;;;;;;;33.88;24.10;;;205.10;1894.40;;;;;;5052977;28;20028;-71
2020/12/10 07:56:02;;;;;;;34.65;23.10;;;205.10;1894.40;;;;;;5051848;28;20030;-69
2020/12/10 07:58:33;;;;;;;42.17;25.48;;;205.00;1894.40;;;;;;5043854;28;20132;-70
2020/12/10 08:01:03;;;;;;;42.83;28.25;;;205.10;1894.40;;;;;;5044918;28;20029;-70
2020/12/10 08:03:45;;;;;;;42.25;26.70;;;205.10;1894.40;;;;;;5042949;28;20414;-69
2020/12/10 08:06:13;;;;;;;40.30;25.75;;;205.10;1894.40;;;;;;5042268;28;20348;-71
2020/12/10 08:08:57;;;;;;;44.35;26.30;;;205.10;1894.40;;;;;;5047375;28;20032;-69
2020/12/10 08:11:23;;;;;;;40.60;25.85;;;205.10;1894.40;;;;;;5044775;28;20055;-69
2020/12/10 08:13:56;;;;;;;51.67;31.98;;;205.10;1894.40;;;;;;5047067;28;20100;-70
2020/12/10 08:16:22;;;;;;;52.17;31.73;;;205.10;1894.40;;;;;;5046503;28;20026;-70
2020/12/10 08:18:48;;;;;;;47.20;30.42;;;205.10;1894.40;;;;;;5040661;28;20029;-70
2020/12/10 08:21:29;;;;;;;54.08;32.47;;;205.10;1894.40;;;;;;5042827;28;20056;-70
2020/12/10 08:23:55;;;;;;;54.95;34.70;;;205.10;1894.40;;;;;;5040178;28;20068;-70
2020/12/10 08:26:21;;;;;;;66.72;39.75;;;205.10;1894.40;;;;;;5044667;28;20439;-69
2020/12/10 08:28:57;;;;;;;69.03;40.20;;;205.20;1894.40;;;;;;5053660;28;20079;-69
2020/12/10 08:31:28;;;;;;;68.35;38.67;;;205.20;1894.40;;;;;;5045108;28;20375;-69
2020/12/10 08:33:54;;;;;;;72.95;42.10;;;205.30;1868.80;;;;;;5055218;28;20052;-69
2020/12/10 08:36:27;;;;;;;104.55;52.78;;;205.30;1894.40;;;;;;5034261;28;20171;-69
2020/12/10 08:38:54;;;;;;;109.65;53.35;;;205.30;1894.40;;;;;;5054275;28;20107;-70
2020/12/10 08:41:24;;;;;;;139.57;63.65;;;205.40;1868.80;;;;;;5040925;28;20025;-69
2020/12/10 08:43:58;;;;;;;130.77;63.13;;;205.30;1868.80;;;;;;5040638;28;20494;-69
2020/12/10 08:46:24;;;;;;;71.45;40.45;;;205.40;1868.80;;;;;;5054705;28;20025;-69
2020/12/10 08:48:49;;;;;;;67.60;39.13;;;205.50;1868.80;;;;;;5054192;28;20025;-69
2020/12/10 08:51:15;;;;;;;52.45;31.92;;;205.50;1868.80;;;;;;5054348;28;20029;-69
2020/12/10 08:53:49;;;;;;;38.13;24.73;;;205.50;1868.80;;;;;;5045794;28;20028;-69
2020/12/10 08:56:24;;;;;;;32.60;20.15;;;205.60;1843.20;;;;;;5014905;28;20104;-68
2020/12/10 08:58:50;;;;;;;36.60;23.90;;;205.70;1868.80;;;;;;5014805;28;20029;-69
2020/12/10 09:01:15;;;;;;;36.90;23.15;;;230.40;1843.20;;;;;;5013253;28;20038;-69
2020/12/10 09:03:42;;;;;;;27.30;20.48;;;230.40;1843.20;;;;;;5018949;28;20159;-70
2020/12/10 09:06:07;;;;;;;26.23;16.52;;;230.50;1843.20;;;;;;5027794;28;20099;-69
2020/12/10 09:08:33;;;;;;;28.85;15.85;;;230.70;1843.20;;;;;;5034854;28;20080;-69
2020/12/10 09:10:59;;;;;;;23.17;14.48;;;230.80;1843.20;;;;;;5018639;28;20145;-69
2020/12/10 09:13:25;;;;;;;19.63;11.13;;;230.90;1843.20;;;;;;5014871;28;20033;-69
2020/12/10 09:15:51;;;;;;;20.60;11.00;;;231.00;1817.60;;;;;;5027961;28;20036;-68
2020/12/10 09:18:17;;;;;;;20.73;12.50;;;230.90;1792.00;;;;;;5040693;28;20368;-68
2020/12/10 09:20:43;;;;;;;24.10;13.90;;;231.00;1792.00;;;;;;5042171;28;20100;-68
2020/12/10 09:23:12;;;;;;;19.55;11.90;;;231.00;1817.60;;;;;;5037176;28;20702;-70
2020/12/10 09:25:39;;;;;;;16.90;10.73;;;231.00;1792.00;;;;;;5041995;28;20021;-71
2020/12/10 09:28:08;;;;;;;18.67;11.90;;;231.00;1792.00;;;;;;5039413;28;20079;-67
2020/12/10 09:30:33;;;;;;;17.85;10.30;;;230.90;1792.00;;;;;;5040451;28;20495;-70
2020/12/10 09:32:59;;;;;;;20.50;10.15;;;230.90;1792.00;;;;;;5041656;28;20033;-69
2020/12/10 09:35:25;;;;;;;23.17;14.38;;;231.00;1792.00;;;;;;5048810;28;20025;-69
2020/12/10 09:37:51;;;;;;;26.40;16.13;;;231.00;1792.00;;;;;;5032633;28;20025;-69
2020/12/10 09:40:16;;;;;;;18.70;13.05;;;231.00;1792.00;;;;;;5032411;28;20108;-69
2020/12/10 09:42:45;;;;;;;15.77;10.45;;;231.00;1792.00;;;;;;5034859;28;20109;-69
2020/12/10 09:45:11;;;;;;;12.57;10.20;;;231.00;1792.00;;;;;;5046047;28;20033;-70
2020/12/10 09:47:37;;;;;;;12.35;9.05;;;230.90;1792.00;;;;;;5041798;28;20064;-70
2020/12/10 09:50:06;;;;;;;12.32;9.18;;;231.00;1792.00;;;;;;5045629;28;20028;-70
2020/12/10 09:52:35;;;;;;;16.98;10.05;;;231.10;1792.00;;;;;;5036240;28;20587;-70
2020/12/10 09:58:02;;;;;;;12.85;7.95;;;231.30;1766.40;;;;;;5051398;28;20071;-70
2020/12/10 10:00:27;;;;;;;10.82;7.53;;;256.00;1766.40;;;;;;5045194;28;20037;-70
2020/12/10 10:02:53;;;;;;;11.23;7.50;;;256.20;1766.40;;;;;;5042891;28;20021;-70
2020/12/10 10:05:19;;;;;;;9.02;6.38;;;256.50;1766.40;;;;;;5063718;28;20037;-70
2020/12/10 10:07:45;;;;;;;19.10;8.23;;;256.80;1740.80;;;;;;5052236;28;20033;-69
2020/12/10 10:10:10;;;;;;;16.70;7.78;;;281.60;1766.40;;;;;;5055366;28;20552;-67
2020/12/10 10:12:37;;;;;;;16.73;6.90;;;281.80;1740.80;;;;;;5061487;28;20482;-69
2020/12/10 10:15:03;;;;;;;13.02;5.78;;;281.80;1715.20;;;;;;5055625;28;20021;-69
2020/12/10 10:17:29;;;;;;;17.73;8.93;;;281.70;1689.60;;;;;;5058379;28;20120;-69
2020/12/10 10:19:54;;;;;;;18.80;10.63;;;281.60;1689.60;;;;;;5060664;28;20538;-69
2020/12/10 10:22:20;;;;;;;38.15;20.77;;;256.80;1664.00;;;;;;5056570;28;20089;-69
2020/12/10 10:24:46;;;;;;;29.48;17.20;;;256.60;1664.00;;;;;;5057795;28;20572;-70
2020/12/10 10:27:12;;;;;;;27.60;15.27;;;256.40;1689.60;;;;;;5057241;28;20593;-69
2020/12/10 10:29:38;;;;;;;20.38;12.85;;;256.40;1689.60;;;;;;5053003;28;20078;-68
2020/12/10 10:32:06;;;;;;;14.98;9.73;;;256.30;1689.60;;;;;;5050551;28;20566;-70
2020/12/10 10:34:32;;;;;;;17.60;11.15;;;256.30;1689.60;;;;;;5045631;28;20036;-70
2020/12/10 10:36:58;;;;;;;12.30;9.40;;;256.10;1689.60;;;;;;5039717;28;20025;-68
2020/12/10 10:39:23;;;;;;;16.20;10.60;;;256.00;1689.60;;;;;;5035768;28;20037;-68
2020/12/10 10:41:49;;;;;;;15.18;11.18;;;256.00;1689.60;;;;;;5031976;28;20041;-69
2020/12/10 10:44:16;;;;;;;23.35;12.63;;;231.30;1715.20;;;;;;5033544;28;20032;-68
2020/12/10 10:46:42;;;;;;;35.17;23.45;;;231.30;1715.20;;;;;;5033695;28;20026;-68
2020/12/10 10:49:09;;;;;;;44.83;28.08;;;231.20;1715.20;;;;;;5032331;28;20498;-68
2020/12/10 10:51:35;;;;;;;51.53;30.90;;;231.10;1715.20;;;;;;5033487;28;20120;-68
2020/12/10 10:54:01;;;;;;;39.72;23.85;;;231.20;1715.20;;;;;;5033532;28;20017;-68
2020/12/10 10:56:27;;;;;;;40.03;21.77;;;231.20;1715.20;;;;;;5033253;28;20060;-68
2020/12/10 10:58:53;;;;;;;44.13;25.35;;;231.20;1689.60;;;;;;5033574;28;20099;-68
2020/12/10 11:01:26;;;;;;;45.05;26.58;;;231.20;1715.20;;;;;;5033653;28;20527;-68
2020/12/10 11:03:52;;;;;;;33.40;19.40;;;231.30;1715.20;;;;;;5033447;28;20029;-68
2020/12/10 11:06:18;;;;;;;21.73;13.52;;;231.30;1715.20;;;;;;5037391;28;20410;-68
2020/12/10 11:08:44;;;;;;;25.50;14.73;;;256.00;1689.60;;;;;;5036075;28;20068;-68
2020/12/10 11:11:09;;;;;;;22.98;13.77;;;231.30;1715.20;;;;;;5036317;28;20045;-68
2020/12/10 11:13:35;;;;;;;20.85;11.90;;;256.00;1715.20;;;;;;5037291;28;20061;-68
2020/12/10 11:16:01;;;;;;;25.33;15.45;;;256.10;1715.20;;;;;;5037119;28;20067;-68
2020/12/10 11:18:27;;;;;;;28.40;14.93;;;256.00;1689.60;;;;;;5036552;28;20041;-68
2020/12/10 11:20:52;;;;;;;20.48;13.05;;;256.00;1689.60;;;;;;5037215;28;20048;-68
2020/12/10 11:23:19;;;;;;;38.85;20.58;;;231.30;1689.60;;;;;;5035544;28;20037;-68
2020/12/10 11:25:46;;;;;;;67.68;34.28;;;231.10;1689.60;;;;;;5036861;28;20478;-69
2020/12/10 11:28:11;;;;;;;98.47;49.88;;;231.10;1715.20;;;;;;5036439;28;20109;-68
2020/12/10 11:30:37;;;;;;;84.07;41.35;;;231.10;1715.20;;;;;;5036929;28;20045;-69
2020/12/10 11:33:03;;;;;;;42.90;23.77;;;231.30;1715.20;;;;;;5035452;28;20451;-69
2020/12/10 11:35:28;;;;;;;41.80;22.08;;;256.00;1715.20;;;;;;5035320;28;20033;-68
2020/12/10 11:37:57;;;;;;;28.58;17.52;;;256.20;1689.60;;;;;;5036722;28;20029;-68
2020/12/10 11:40:24;;;;;;;22.05;14.07;;;256.50;1689.60;;;;;;5036565;28;20116;-69
2020/12/10 11:42:50;;;;;;;14.95;9.88;;;256.70;1689.60;;;;;;5036447;28;20040;-69
2020/12/10 11:45:17;;;;;;;24.88;13.82;;;256.90;1664.00;;;;;;5036331;28;20025;-69
2020/12/10 11:47:42;;;;;;;21.08;14.20;;;281.60;1664.00;;;;;;5036291;28;20490;-69
2020/12/10 11:50:08;;;;;;;17.80;12.93;;;281.60;1664.00;;;;;;5036639;28;20025;-69
2020/12/10 11:52:34;;;;;;;19.40;12.27;;;281.70;1664.00;;;;;;5036339;28;20036;-69
2020/12/10 11:55:00;;;;;;;29.33;17.67;;;281.60;1664.00;;;;;;5036575;28;20060;-68
2020/12/10 11:57:26;;;;;;;78.32;42.97;;;281.60;1715.20;;;;;;5034802;28;20022;-68
2020/12/10 11:59:53;;;;;;;48.47;20.35;;;256.90;1638.40;;;;;;5035916;28;20024;-69
2020/12/10 12:02:18;;;;;;;25.17;16.35;;;256.60;1612.80;;;;;;5036247;28;20029;-69
2020/12/10 12:04:44;;;;;;;20.10;13.15;;;256.60;1612.80;;;;;;5032658;28;20037;-70
2020/12/10 12:07:10;;;;;;;16.17;11.52;;;256.50;1638.40;;;;;;5033029;28;20454;-71
2020/12/10 12:09:35;;;;;;;20.63;11.85;;;256.40;1638.40;;;;;;5034926;28;20046;-71